Time;durP1;ratioP1;P1;durP2;ratioP2;P2;SDS_P1;SDS_P2;PMS_P1;PMS_P2;Temp;Humidity;BMP_temperature;BMP_pressure;BME280_temperature;BME280_humidity;BME280_pressure;Samples;Min_cycle;Max_cycle;Signal;HPM_P1;HPM_P2
2020/12/31 00:00:25;;;;;;;8.15;4.00;;;7.50;84.20;;;;;;5013269;28;20056;-51
2020/12/31 00:02:51;;;;;;;5.22;3.45;;;7.50;84.20;;;;;;5007041;28;20038;-51
2020/12/31 00:05:17;;;;;;;8.35;3.53;;;7.50;84.20;;;;;;4999710;28;20025;-51
2020/12/31 00:07:42;;;;;;;5.53;3.45;;;7.50;84.20;;;;;;5015549;28;20030;-51
2020/12/31 00:10:08;;;;;;;5.50;3.10;;;7.40;84.20;;;;;;5014994;28;20120;-51
2020/12/31 00:12:34;;;;;;;4.45;2.67;;;7.40;84.30;;;;;;5001896;28;20034;-51
2020/12/31 00:14:59;;;;;;;4.68;3.17;;;7.40;84.30;;;;;;5015419;28;20022;-50
2020/12/31 00:17:25;;;;;;;5.30;2.75;;;7.40;84.30;;;;;;5015686;28;20061;-50
2020/12/31 00:19:51;;;;;;;7.97;3.40;;;7.40;84.30;;;;;;5014450;28;20026;-51
2020/12/31 00:22:17;;;;;;;5.93;3.30;;;7.40;84.30;;;;;;4998939;28;20022;-50
2020/12/31 00:24:42;;;;;;;4.70;3.05;;;7.40;84.40;;;;;;5015488;28;20025;-50
2020/12/31 00:27:08;;;;;;;6.07;3.83;;;7.40;84.40;;;;;;5015556;28;20449;-51
2020/12/31 00:29:33;;;;;;;6.35;2.97;;;7.40;84.40;;;;;;5009828;28;20030;-51
2020/12/31 00:31:59;;;;;;;5.22;2.38;;;7.30;84.40;;;;;;4996080;28;20023;-51
2020/12/31 00:34:25;;;;;;;4.45;2.92;;;7.30;84.40;;;;;;5007101;28;20026;-51
2020/12/31 00:36:51;;;;;;;5.18;3.13;;;7.30;84.50;;;;;;4995699;28;20105;-51
2020/12/31 00:39:17;;;;;;;3.47;2.72;;;7.30;84.50;;;;;;4995581;28;20046;-51
2020/12/31 00:41:43;;;;;;;4.65;2.90;;;7.30;84.50;;;;;;4995552;28;20030;-51
2020/12/31 00:44:09;;;;;;;4.03;3.03;;;7.30;84.50;;;;;;5000626;28;20025;-51
2020/12/31 00:46:34;;;;;;;6.13;3.05;;;7.30;84.60;;;;;;5015200;28;20113;-51
2020/12/31 00:49:00;;;;;;;5.97;3.50;;;7.30;84.60;;;;;;5004941;28;20050;-50
2020/12/31 00:51:25;;;;;;;5.97;3.20;;;7.30;84.60;;;;;;4995149;28;20018;-51
2020/12/31 00:53:51;;;;;;;5.38;3.33;;;7.30;84.60;;;;;;5007091;28;20049;-50
2020/12/31 00:56:17;;;;;;;5.68;3.50;;;7.30;84.60;;;;;;5015030;28;20037;-51
2020/12/31 00:58:42;;;;;;;6.57;3.83;;;7.20;84.60;;;;;;5014830;28;20419;-51
2020/12/31 01:01:08;;;;;;;5.63;3.67;;;7.20;84.70;;;;;;5014799;28;20032;-51
2020/12/31 01:03:33;;;;;;;4.65;2.90;;;7.20;84.70;;;;;;5014649;28;20028;-51
2020/12/31 01:05:59;;;;;;;5.95;2.97;;;7.20;84.70;;;;;;5004153;28;20022;-51
2020/12/31 01:08:26;;;;;;;4.78;3.38;;;7.20;84.80;;;;;;5010436;28;20493;-51
2020/12/31 01:10:52;;;;;;;6.10;3.03;;;7.20;84.80;;;;;;5014627;28;20080;-51
2020/12/31 01:13:17;;;;;;;4.07;2.90;;;7.20;84.80;;;;;;5014333;28;20398;-51
2020/12/31 01:15:43;;;;;;;7.38;3.28;;;7.20;84.90;;;;;;5014414;28;20022;-51
2020/12/31 01:18:08;;;;;;;4.68;2.78;;;7.20;84.90;;;;;;5014689;28;20498;-51
2020/12/31 01:20:34;;;;;;;6.40;2.92;;;7.20;84.90;;;;;;5014482;28;20080;-50
2020/12/31 01:23:00;;;;;;;3.00;2.45;;;7.20;84.90;;;;;;5013206;28;20030;-51
2020/12/31 01:25:25;;;;;;;4.78;2.60;;;7.10;85.00;;;;;;4999675;28;20045;-51
2020/12/31 01:27:51;;;;;;;3.97;2.40;;;7.10;85.00;;;;;;4994944;28;20069;-50
2020/12/31 01:30:17;;;;;;;5.95;3.00;;;7.10;85.00;;;;;;5005970;28;20097;-50
2020/12/31 01:32:42;;;;;;;5.32;2.90;;;7.10;85.00;;;;;;5014042;28;20398;-51
2020/12/31 01:35:08;;;;;;;3.92;2.65;;;7.10;85.00;;;;;;5013761;28;20029;-50
2020/12/31 01:37:33;;;;;;;4.15;2.55;;;7.10;85.00;;;;;;5013921;28;20057;-51
2020/12/31 01:39:59;;;;;;;5.53;2.30;;;7.10;85.10;;;;;;5014075;28;20519;-51
2020/12/31 01:42:25;;;;;;;5.18;2.50;;;7.10;85.10;;;;;;5007370;28;20049;-50
2020/12/31 01:44:50;;;;;;;3.80;2.70;;;7.10;85.10;;;;;;5003614;28;20038;-51
2020/12/31 01:47:17;;;;;;;3.88;2.42;;;7.10;85.10;;;;;;5012502;28;20026;-50
2020/12/31 01:49:44;;;;;;;3.08;2.15;;;7.10;85.10;;;;;;5014120;28;20033;-51
2020/12/31 01:52:14;;;;;;;5.13;2.50;;;7.00;85.10;;;;;;5013536;28;20049;-50
2020/12/31 01:54:40;;;;;;;2.97;2.10;;;7.00;85.10;;;;;;5013291;28;20477;-51
2020/12/31 01:57:09;;;;;;;2.55;1.67;;;7.00;85.10;;;;;;5013656;28;20037;-51
2020/12/31 01:59:34;;;;;;;2.97;1.77;;;7.00;85.10;;;;;;5015516;28;20477;-51
2020/12/31 02:02:00;;;;;;;3.90;2.20;;;7.00;85.10;;;;;;5021570;28;20030;-51
2020/12/31 02:04:25;;;;;;;3.33;2.30;;;7.00;85.20;;;;;;5026521;28;20065;-51
2020/12/31 02:06:53;;;;;;;5.82;2.80;;;7.00;85.20;;;;;;5011110;28;20034;-50
2020/12/31 02:09:19;;;;;;;2.75;1.98;;;7.00;85.20;;;;;;5013739;28;20022;-50
2020/12/31 02:11:44;;;;;;;3.22;2.63;;;7.00;85.20;;;;;;5012827;28;20124;-51
2020/12/31 02:14:10;;;;;;;4.00;1.95;;;7.00;85.30;;;;;;5006294;28;20418;-51
2020/12/31 02:16:38;;;;;;;4.93;2.28;;;7.00;85.20;;;;;;4994023;28;20427;-51
2020/12/31 02:19:13;;;;;;;4.85;2.13;;;7.00;85.20;;;;;;4993638;28;20222;-51
2020/12/31 02:21:44;;;;;;;4.95;2.03;;;7.00;85.20;;;;;;4993837;28;20026;-51
2020/12/31 02:24:10;;;;;;;5.82;2.13;;;7.00;85.20;;;;;;5000617;28;20034;-50
2020/12/31 02:26:37;;;;;;;5.18;1.45;;;7.00;85.20;;;;;;5013555;28;20018;-51
2020/12/31 02:29:05;;;;;;;4.65;2.13;;;7.00;85.30;;;;;;5011941;28;20030;-50
2020/12/31 02:31:31;;;;;;;2.95;1.98;;;7.00;85.30;;;;;;4993267;28;20109;-51
2020/12/31 02:33:57;;;;;;;2.40;1.80;;;7.00;85.20;;;;;;4998241;28;20030;-51
2020/12/31 02:36:26;;;;;;;6.15;1.80;;;7.00;85.30;;;;;;5013515;28;20088;-50
2020/12/31 02:38:52;;;;;;;2.38;1.92;;;6.90;85.20;;;;;;5001043;28;20050;-51
2020/12/31 02:41:19;;;;;;;2.45;1.85;;;6.90;85.20;;;;;;4993895;28;20050;-51
2020/12/31 02:43:45;;;;;;;4.15;2.33;;;6.90;85.20;;;;;;5012740;28;20156;-51
2020/12/31 02:46:13;;;;;;;2.88;1.88;;;6.90;85.20;;;;;;5013081;28;20072;-51
2020/12/31 02:48:39;;;;;;;2.00;1.77;;;6.90;85.20;;;;;;5013400;28;20037;-51
2020/12/31 02:51:09;;;;;;;4.13;2.10;;;6.90;85.30;;;;;;5011519;28;20443;-51
2020/12/31 02:53:35;;;;;;;2.78;1.75;;;6.90;85.30;;;;;;5012517;28;20362;-51
2020/12/31 02:56:08;;;;;;;3.08;1.73;;;6.90;85.30;;;;;;5013121;28;20022;-50
2020/12/31 02:58:33;;;;;;;3.50;2.10;;;6.90;85.30;;;;;;5012999;28;20030;-51
2020/12/31 03:00:59;;;;;;;4.60;2.40;;;6.90;85.30;;;;;;5012974;28;20028;-50
2020/12/31 03:03:24;;;;;;;2.92;1.70;;;6.90;85.30;;;;;;5012708;28;20041;-51
2020/12/31 03:05:50;;;;;;;4.28;2.35;;;6.90;85.30;;;;;;5001322;28;20119;-50
2020/12/31 03:08:17;;;;;;;2.30;1.92;;;6.90;85.30;;;;;;5006679;28;20038;-51
2020/12/31 03:10:42;;;;;;;2.92;1.70;;;6.90;85.30;;;;;;5004484;28;20053;-51
2020/12/31 03:13:08;;;;;;;2.83;2.03;;;6.80;85.20;;;;;;5007604;28;20060;-51
2020/12/31 03:15:34;;;;;;;3.83;1.92;;;6.80;85.30;;;;;;4996946;28;20383;-51
2020/12/31 03:17:59;;;;;;;4.22;1.88;;;6.80;85.20;;;;;;4993395;28;20045;-51
2020/12/31 03:20:25;;;;;;;3.28;1.80;;;6.80;85.20;;;;;;4993199;28;20030;-51
2020/12/31 03:22:51;;;;;;;1.90;1.60;;;6.80;85.20;;;;;;4993350;28;20035;-51
2020/12/31 03:25:16;;;;;;;2.80;1.88;;;6.80;85.30;;;;;;5002253;28;20463;-51
2020/12/31 03:27:42;;;;;;;4.70;2.38;;;6.80;85.30;;;;;;5012591;28;20032;-51
2020/12/31 03:30:07;;;;;;;3.47;1.70;;;6.80;85.30;;;;;;5012810;28;20061;-50
2020/12/31 03:32:33;;;;;;;3.35;1.80;;;6.80;85.30;;;;;;5000426;28;20029;-51
2020/12/31 03:34:59;;;;;;;2.95;1.75;;;6.80;85.30;;;;;;5003603;28;20057;-51
2020/12/31 03:37:25;;;;;;;2.13;1.80;;;6.80;85.30;;;;;;5012674;28;20442;-51
2020/12/31 03:39:51;;;;;;;3.35;1.88;;;6.80;85.30;;;;;;5013002;28;20371;-51
2020/12/31 03:42:17;;;;;;;3.92;1.83;;;6.80;85.30;;;;;;5012688;28;20460;-51
2020/12/31 03:44:42;;;;;;;3.72;1.70;;;6.80;85.30;;;;;;5010701;28;20447;-50
2020/12/31 03:47:08;;;;;;;3.83;1.98;;;6.80;85.30;;;;;;5016459;28;20449;-51
2020/12/31 03:49:33;;;;;;;2.85;2.00;;;6.80;85.40;;;;;;5015620;28;20037;-51
2020/12/31 03:51:59;;;;;;;4.95;1.90;;;6.80;85.30;;;;;;5015811;28;20018;-51
2020/12/31 03:54:25;;;;;;;5.30;1.98;;;6.80;85.40;;;;;;5015346;28;20124;-50
2020/12/31 03:56:50;;;;;;;3.33;2.22;;;6.80;85.40;;;;;;5016085;28;20080;-51
2020/12/31 03:59:16;;;;;;;3.35;1.90;;;6.70;85.30;;;;;;5015144;28;20049;-51
2020/12/31 04:01:41;;;;;;;3.08;1.92;;;6.70;85.30;;;;;;5012824;28;20363;-51
2020/12/31 04:04:07;;;;;;;5.20;2.03;;;6.70;85.40;;;;;;4995655;28;20414;-51
2020/12/31 04:06:33;;;;;;;3.72;2.00;;;6.70;85.30;;;;;;5009431;28;20428;-51
2020/12/31 04:08:58;;;;;;;3.03;1.90;;;6.70;85.30;;;;;;5015538;28;20096;-50
2020/12/31 04:11:24;;;;;;;2.00;1.73;;;6.70;85.30;;;;;;5015548;28;20040;-51
2020/12/31 04:13:49;;;;;;;2.60;1.80;;;6.70;85.30;;;;;;5015348;28;20026;-51
2020/12/31 04:16:16;;;;;;;5.15;1.75;;;6.70;85.30;;;;;;5015683;28;20033;-51
2020/12/31 04:18:41;;;;;;;2.97;1.92;;;6.70;85.30;;;;;;5015024;28;20034;-50
2020/12/31 04:21:07;;;;;;;2.25;1.70;;;6.70;85.30;;;;;;5015791;28;20030;-50
2020/12/31 04:23:32;;;;;;;5.18;1.92;;;6.70;85.30;;;;;;4999563;28;20038;-51
2020/12/31 04:25:58;;;;;;;2.78;1.98;;;6.70;85.40;;;;;;4996073;28;20353;-51
2020/12/31 04:28:24;;;;;;;1.50;1.30;;;6.70;85.30;;;;;;4996051;28;20026;-51
2020/12/31 04:30:50;;;;;;;2.30;1.83;;;6.70;85.30;;;;;;5011062;28;20029;-50
2020/12/31 04:33:17;;;;;;;3.38;1.70;;;6.70;85.30;;;;;;5001400;28;20030;-50
2020/12/31 04:35:43;;;;;;;2.88;2.25;;;6.70;85.30;;;;;;4996074;28;20038;-50
2020/12/31 04:38:09;;;;;;;3.50;2.30;;;6.70;85.40;;;;;;4995753;28;20482;-51
2020/12/31 04:40:34;;;;;;;2.30;1.77;;;6.70;85.30;;;;;;4995962;28;20129;-50
2020/12/31 04:43:00;;;;;;;2.63;1.90;;;6.70;85.30;;;;;;5005976;28;20038;-50
2020/12/31 04:45:28;;;;;;;4.35;1.90;;;6.70;85.30;;;;;;5014953;28;20340;-51
2020/12/31 04:48:07;;;;;;;2.60;1.88;;;6.60;85.30;;;;;;5015379;28;20395;-50
2020/12/31 04:50:42;;;;;;;3.55;2.33;;;6.60;85.30;;;;;;5015232;28;20033;-51
2020/12/31 04:53:09;;;;;;;4.30;2.15;;;6.70;85.30;;;;;;5009384;28;20073;-51
2020/12/31 04:55:54;;;;;;;2.50;2.10;;;6.70;85.30;;;;;;5015112;28;20034;-51
2020/12/31 04:58:19;;;;;;;2.50;2.00;;;6.60;85.30;;;;;;5014063;28;20038;-51
2020/12/31 05:00:46;;;;;;;7.72;2.40;;;6.60;85.30;;;;;;5014868;28;20347;-51
2020/12/31 05:03:12;;;;;;;2.53;1.70;;;6.60;85.30;;;;;;4998739;28;20038;-51
2020/12/31 05:05:39;;;;;;;4.00;2.38;;;6.60;85.30;;;;;;5001296;28;20447;-51
2020/12/31 05:08:06;;;;;;;3.13;2.40;;;6.60;85.20;;;;;;5014194;28;20036;-51
2020/12/31 05:10:32;;;;;;;3.25;1.90;;;6.60;85.20;;;;;;5014482;28;20026;-51
2020/12/31 05:13:06;;;;;;;2.17;1.98;;;6.60;85.20;;;;;;5014437;28;20061;-51
2020/12/31 05:15:42;;;;;;;4.38;2.50;;;6.60;85.20;;;;;;5014733;28;20032;-51
2020/12/31 05:18:18;;;;;;;3.25;2.47;;;6.60;85.10;;;;;;5014480;28;20049;-51
2020/12/31 05:20:46;;;;;;;12.98;2.55;;;6.60;85.20;;;;;;5014702;28;20029;-51
2020/12/31 05:23:30;;;;;;;4.72;2.67;;;6.60;85.20;;;;;;4998764;28;20026;-51
2020/12/31 05:25:56;;;;;;;3.42;2.05;;;6.60;85.10;;;;;;4999267;28;20030;-51
2020/12/31 05:28:33;;;;;;;4.15;2.60;;;6.60;85.10;;;;;;5014245;28;20025;-50
2020/12/31 05:31:09;;;;;;;3.72;2.53;;;6.60;85.10;;;;;;4997504;28;20113;-51
2020/12/31 05:33:38;;;;;;;5.47;2.72;;;6.60;85.10;;;;;;5010806;28;20036;-51
2020/12/31 05:36:26;;;;;;;6.95;2.92;;;6.60;85.10;;;;;;5014010;28;20505;-51
2020/12/31 05:38:55;;;;;;;6.40;2.78;;;6.60;85.10;;;;;;5014107;28;20048;-51
2020/12/31 05:41:32;;;;;;;8.88;3.13;;;6.60;85.10;;;;;;5013856;28;20022;-51
2020/12/31 05:43:59;;;;;;;4.32;2.70;;;6.60;85.00;;;;;;4994331;28;20038;-51
2020/12/31 05:46:26;;;;;;;5.63;3.17;;;6.60;85.10;;;;;;4994618;28;20057;-51
2020/12/31 05:48:59;;;;;;;6.70;3.28;;;6.60;85.10;;;;;;4994438;28;20474;-51
2020/12/31 05:51:30;;;;;;;7.03;3.20;;;6.60;85.10;;;;;;4994126;28;20436;-51
2020/12/31 05:54:26;;;;;;;5.55;2.97;;;6.60;85.10;;;;;;5014007;28;20038;-51
2020/12/31 05:56:59;;;;;;;7.65;2.80;;;6.60;85.00;;;;;;5014590;28;20407;-51
2020/12/31 05:59:26;;;;;;;4.40;3.05;;;6.60;85.00;;;;;;5013930;28;20049;-51
2020/12/31 06:01:56;;;;;;;4.68;2.75;;;6.60;85.00;;;;;;5001305;28;20037;-51
2020/12/31 06:04:48;;;;;;;4.93;3.47;;;6.60;85.00;;;;;;5013491;28;20026;-51
2020/12/31 06:07:29;;;;;;;5.18;2.83;;;6.60;85.00;;;;;;5013633;28;20033;-51
2020/12/31 06:10:06;;;;;;;3.38;2.40;;;6.60;85.10;;;;;;5013563;28;20474;-51
2020/12/31 06:12:53;;;;;;;4.47;2.80;;;6.60;85.00;;;;;;5013629;28;20044;-51
2020/12/31 06:15:26;;;;;;;2.83;2.15;;;6.60;85.00;;;;;;5013475;28;20076;-51
2020/12/31 06:17:53;;;;;;;3.90;2.67;;;6.60;85.00;;;;;;5013734;28;20030;-51
2020/12/31 06:20:20;;;;;;;11.15;2.72;;;6.60;85.00;;;;;;5005945;28;20085;-51
2020/12/31 06:23:08;;;;;;;5.32;2.75;;;6.50;85.00;;;;;;5003646;28;20033;-51
2020/12/31 06:25:45;;;;;;;4.65;2.38;;;6.50;85.00;;;;;;5013408;28;20439;-51
2020/12/31 06:28:14;;;;;;;3.10;2.28;;;6.50;84.90;;;;;;5013669;28;20030;-51
2020/12/31 06:30:42;;;;;;;4.35;2.63;;;6.50;84.90;;;;;;4998930;28;20436;-51
2020/12/31 06:33:30;;;;;;;4.97;2.50;;;6.50;84.90;;;;;;5006189;28;20423;-51
2020/12/31 06:36:01;;;;;;;5.38;2.83;;;6.50;84.90;;;;;;5013480;28;20099;-51
2020/12/31 06:38:36;;;;;;;3.78;2.40;;;6.50;84.90;;;;;;4997540;28;20046;-51
2020/12/31 06:41:04;;;;;;;7.55;2.50;;;6.60;84.90;;;;;;4993450;28;20031;-51
2020/12/31 06:43:30;;;;;;;4.55;2.55;;;6.60;84.80;;;;;;5009032;28;20478;-51
2020/12/31 06:45:57;;;;;;;4.28;2.47;;;6.60;84.80;;;;;;5013345;28;20034;-51
2020/12/31 06:48:26;;;;;;;5.70;2.22;;;6.60;84.80;;;;;;5004762;28;20463;-51
2020/12/31 06:51:09;;;;;;;3.67;2.20;;;6.60;84.70;;;;;;4993471;28;20029;-51
2020/12/31 06:53:35;;;;;;;4.60;2.65;;;6.60;84.70;;;;;;5009797;28;20033;-50
2020/12/31 06:56:03;;;;;;;4.07;2.42;;;6.70;84.80;;;;;;5013364;28;20076;-51
2020/12/31 06:58:29;;;;;;;3.63;2.30;;;6.60;84.70;;;;;;5013072;28;20066;-51
2020/12/31 07:00:55;;;;;;;4.63;2.83;;;6.60;84.70;;;;;;5013169;28;20042;-51
2020/12/31 07:03:39;;;;;;;5.60;2.95;;;6.60;84.70;;;;;;5012129;28;20034;-51
2020/12/31 07:06:25;;;;;;;4.65;2.70;;;6.60;84.70;;;;;;5010565;28;20030;-51
2020/12/31 07:08:53;;;;;;;4.65;2.80;;;6.60;84.70;;;;;;5013094;28;20354;-51
2020/12/31 07:11:35;;;;;;;4.22;3.20;;;6.60;84.70;;;;;;5012811;28;20157;-51
2020/12/31 07:14:02;;;;;;;4.72;3.13;;;6.60;84.60;;;;;;5012821;28;20034;-51
2020/12/31 07:16:44;;;;;;;4.90;3.53;;;6.60;84.70;;;;;;5003767;28;20034;-50
2020/12/31 07:19:10;;;;;;;6.57;2.97;;;6.60;84.70;;;;;;4993451;28;20038;-51
2020/12/31 07:21:37;;;;;;;5.45;3.53;;;6.60;84.60;;;;;;4996530;28;20038;-51
2020/12/31 07:24:26;;;;;;;6.20;3.35;;;6.60;84.60;;;;;;5015130;28;20029;-51
2020/12/31 07:26:58;;;;;;;5.88;3.67;;;6.60;84.50;;;;;;5015545;28;20398;-51
2020/12/31 07:29:33;;;;;;;6.35;3.33;;;6.60;84.50;;;;;;5016646;28;20359;-50
2020/12/31 07:32:01;;;;;;;6.35;3.60;;;6.60;84.50;;;;;;5015600;28;20029;-51
2020/12/31 07:34:32;;;;;;;5.38;3.95;;;6.60;84.50;;;;;;4997337;28;20034;-51
2020/12/31 07:37:01;;;;;;;8.10;3.42;;;6.60;84.50;;;;;;4997255;28;20355;-51
2020/12/31 07:39:27;;;;;;;6.25;3.30;;;6.60;84.50;;;;;;4997035;28;20066;-51
2020/12/31 07:42:28;;;;;;;6.28;2.50;;;6.60;84.50;;;;;;4996209;28;20031;-51
2020/12/31 07:44:56;;;;;;;4.82;2.17;;;6.60;84.40;;;;;;4994276;28;20113;-51
2020/12/31 07:47:23;;;;;;;5.38;3.40;;;6.60;84.40;;;;;;5012166;28;20465;-50
2020/12/31 07:49:51;;;;;;;4.88;2.85;;;6.70;84.40;;;;;;5016593;28;20026;-50
2020/12/31 07:52:17;;;;;;;6.82;3.00;;;6.70;84.40;;;;;;5012012;28;20022;-51
2020/12/31 07:54:42;;;;;;;3.83;2.75;;;6.60;84.30;;;;;;5016001;28;20040;-51
2020/12/31 07:57:14;;;;;;;4.25;2.95;;;6.70;84.40;;;;;;5015546;28;20025;-51
2020/12/31 07:59:44;;;;;;;5.57;3.05;;;6.60;84.30;;;;;;5015933;28;20045;-51
2020/12/31 08:02:10;;;;;;;;;;;6.70;84.30;;;;;;5013711;28;20025;-51
2020/12/31 08:04:36;;;;;;;6.53;2.50;;;6.70;84.30;;;;;;4996535;28;19906;-51
2020/12/31 08:07:04;;;;;;;5.95;3.45;;;6.70;84.30;;;;;;5013028;28;20026;-50
2020/12/31 08:09:30;;;;;;;4.03;2.58;;;6.70;84.20;;;;;;5015293;28;20033;-51
2020/12/31 08:11:56;;;;;;;3.95;2.92;;;6.70;84.20;;;;;;5014077;28;20034;-51
2020/12/31 08:14:23;;;;;;;5.50;2.60;;;6.70;84.20;;;;;;4996132;28;20481;-51
2020/12/31 08:16:59;;;;;;;5.40;3.13;;;6.70;84.10;;;;;;4996406;28;20423;-51
2020/12/31 08:19:26;;;;;;;4.55;2.63;;;6.80;84.00;;;;;;4996274;28;20370;-51
2020/12/31 08:21:57;;;;;;;4.88;2.83;;;6.70;84.00;;;;;;4995801;28;20034;-51
2020/12/31 08:24:24;;;;;;;3.63;2.10;;;6.80;84.00;;;;;;4996219;28;20113;-50
2020/12/31 08:26:58;;;;;;;6.32;3.22;;;6.80;83.90;;;;;;4996258;28;20030;-51
2020/12/31 08:29:34;;;;;;;5.40;3.15;;;6.80;83.70;;;;;;5000338;28;20534;-51
2020/12/31 08:32:04;;;;;;;4.70;2.95;;;6.90;83.70;;;;;;5014587;28;20060;-51
2020/12/31 08:34:35;;;;;;;;;;;6.90;83.60;;;;;;5016073;28;20029;-51
2020/12/31 08:37:00;;;;;;;7.90;3.10;;;6.90;83.60;;;;;;5015184;28;20298;-51
2020/12/31 08:39:28;;;;;;;5.35;3.13;;;6.90;83.60;;;;;;5001212;28;20048;-51
2020/12/31 08:41:58;;;;;;;5.07;3.33;;;7.00;84.30;;;;;;4996468;28;20022;-50
2020/12/31 08:44:25;;;;;;;9.02;3.30;;;7.00;83.50;;;;;;4995939;28;20049;-51
2020/12/31 08:46:51;;;;;;;6.57;3.10;;;7.00;83.50;;;;;;4995821;28;20038;-50
2020/12/31 08:49:25;;;;;;;4.75;3.40;;;7.10;83.50;;;;;;4995658;28;20030;-51
2020/12/31 08:51:51;;;;;;;4.97;3.03;;;7.10;83.40;;;;;;4998374;28;20038;-51
2020/12/31 08:54:17;;;;;;;6.35;3.33;;;7.10;83.40;;;;;;5015178;28;20456;-51
2020/12/31 08:56:43;;;;;;;8.05;4.38;;;7.20;83.50;;;;;;5003474;28;20038;-51
2020/12/31 08:59:14;;;;;;;6.30;3.55;;;7.20;83.50;;;;;;5002012;28;20048;-51
2020/12/31 09:01:42;;;;;;;4.70;3.25;;;7.20;83.40;;;;;;5012995;28;20033;-51
2020/12/31 09:04:19;;;;;;;4.20;2.50;;;7.20;83.20;;;;;;4995083;28;20027;-51
2020/12/31 09:06:52;;;;;;;6.05;3.33;;;7.30;83.00;;;;;;5009934;28;20026;-51
2020/12/31 09:09:19;;;;;;;8.25;4.25;;;7.30;82.80;;;;;;5014869;28;20474;-50
2020/12/31 09:12:03;;;;;;;6.55;3.10;;;7.30;82.70;;;;;;5013362;28;20533;-51
2020/12/31 09:14:34;;;;;;;8.90;4.13;;;7.40;82.60;;;;;;5014670;28;20089;-51
2020/12/31 09:17:00;;;;;;;6.45;2.90;;;7.40;82.50;;;;;;5014810;28;20440;-51
2020/12/31 09:19:26;;;;;;;8.48;3.90;;;7.40;82.50;;;;;;5013547;28;20045;-51
2020/12/31 09:21:52;;;;;;;11.25;3.22;;;7.40;82.40;;;;;;5011246;28;20030;-51
2020/12/31 09:24:19;;;;;;;8.23;3.45;;;7.40;82.40;;;;;;4995059;28;20475;-51
2020/12/31 09:26:58;;;;;;;7.38;3.47;;;7.40;82.40;;;;;;4994917;28;20022;-51
2020/12/31 09:29:26;;;;;;;7.88;3.63;;;7.40;82.40;;;;;;4998607;28;20059;-51
2020/12/31 09:31:52;;;;;;;4.63;2.80;;;7.50;82.40;;;;;;5013693;28;20379;-51
2020/12/31 09:34:18;;;;;;;4.13;2.40;;;7.50;82.30;;;;;;5014454;28;20022;-51
2020/12/31 09:36:44;;;;;;;2.97;1.42;;;7.50;82.50;;;;;;5014241;28;20034;-51
2020/12/31 09:39:10;;;;;;;7.70;3.95;;;7.60;82.80;;;;;;5013895;28;20042;-51
2020/12/31 09:41:36;;;;;;;6.75;3.97;;;7.60;82.50;;;;;;5013467;28;20026;-51
2020/12/31 09:44:03;;;;;;;13.23;2.65;;;7.60;82.50;;;;;;4994124;28;20037;-51
2020/12/31 09:46:28;;;;;;;4.93;2.80;;;7.60;82.30;;;;;;4994394;28;20026;-51
2020/12/31 09:48:55;;;;;;;8.80;2.90;;;7.60;82.40;;;;;;4994738;28;20026;-51
2020/12/31 09:51:21;;;;;;;6.82;3.30;;;7.70;82.50;;;;;;4994300;28;20027;-51
2020/12/31 09:53:51;;;;;;;6.05;2.90;;;7.70;82.30;;;;;;5011479;28;20022;-51
2020/12/31 09:56:17;;;;;;;6.22;2.95;;;7.70;82.40;;;;;;5013913;28;20034;-51
2020/12/31 09:58:43;;;;;;;6.22;3.03;;;7.70;82.50;;;;;;5013556;28;20037;-51
2020/12/31 10:01:09;;;;;;;7.60;3.55;;;7.80;82.80;;;;;;5013469;28;20030;-51
2020/12/31 10:03:35;;;;;;;5.60;2.55;;;7.80;82.70;;;;;;5013677;28;20030;-50
2020/12/31 10:06:01;;;;;;;5.60;3.05;;;7.80;82.50;;;;;;5011069;28;20072;-51
2020/12/31 10:08:27;;;;;;;7.03;3.08;;;7.80;82.30;;;;;;5005378;28;20384;-51
2020/12/31 10:10:53;;;;;;;7.10;2.55;;;7.80;82.30;;;;;;5005858;28;20481;-51
2020/12/31 10:13:18;;;;;;;6.40;2.88;;;7.80;82.20;;;;;;5013437;28;20065;-50
2020/12/31 10:15:44;;;;;;;4.88;1.60;;;7.80;82.30;;;;;;5013920;28;20072;-51
2020/12/31 10:18:10;;;;;;;5.90;2.85;;;7.90;82.70;;;;;;5013483;28;20026;-51
2020/12/31 10:20:36;;;;;;;5.28;2.80;;;7.90;82.80;;;;;;5005392;28;20342;-51
2020/12/31 10:23:03;;;;;;;4.85;2.40;;;7.90;82.90;;;;;;4993582;28;20035;-51
2020/12/31 10:25:28;;;;;;;4.45;2.65;;;7.90;82.90;;;;;;4993642;28;20113;-51
2020/12/31 10:27:54;;;;;;;6.90;2.42;;;7.90;82.90;;;;;;4996753;28;20185;-51
2020/12/31 10:30:20;;;;;;;4.85;2.97;;;8.00;82.60;;;;;;5012872;28;20045;-51
2020/12/31 10:32:45;;;;;;;2.30;1.25;;;8.00;82.50;;;;;;5013292;28;20473;-50
2020/12/31 10:35:11;;;;;;;5.53;2.05;;;7.90;82.40;;;;;;5013516;28;20137;-51
2020/12/31 10:37:37;;;;;;;3.08;1.95;;;7.90;82.40;;;;;;5013283;28;20037;-51
2020/12/31 10:40:03;;;;;;;9.00;2.88;;;7.90;82.40;;;;;;5010445;28;20034;-51
2020/12/31 10:42:30;;;;;;;8.00;2.90;;;7.90;82.40;;;;;;4993585;28;20027;-51
2020/12/31 10:44:55;;;;;;;5.53;2.60;;;7.90;82.20;;;;;;4993812;28;20042;-51
2020/12/31 10:47:21;;;;;;;6.05;3.53;;;7.90;82.40;;;;;;5013112;28;20026;-51
2020/12/31 10:49:47;;;;;;;5.85;2.50;;;7.90;82.30;;;;;;5012714;28;20025;-51
2020/12/31 10:52:12;;;;;;;4.20;2.92;;;7.90;82.30;;;;;;5012650;28;20117;-51
2020/12/31 10:54:38;;;;;;;5.82;2.75;;;7.90;82.40;;;;;;5015060;28;20038;-51
2020/12/31 10:57:04;;;;;;;3.67;2.83;;;7.90;82.30;;;;;;5016794;28;20022;-51
2020/12/31 10:59:29;;;;;;;4.47;2.92;;;7.90;82.30;;;;;;5017073;28;20041;-50
2020/12/31 11:01:55;;;;;;;3.13;2.22;;;7.90;82.40;;;;;;5013675;28;20104;-51
2020/12/31 11:04:21;;;;;;;3.95;2.33;;;7.90;82.40;;;;;;5017299;28;20026;-50
2020/12/31 11:06:47;;;;;;;3.90;2.58;;;7.90;82.40;;;;;;5002825;28;20444;-51
2020/12/31 11:09:13;;;;;;;4.93;3.05;;;7.90;82.40;;;;;;5010514;28;20030;-51
2020/12/31 11:11:40;;;;;;;8.68;4.75;;;7.90;82.40;;;;;;5006712;28;20583;-51
2020/12/31 11:14:06;;;;;;;6.15;3.88;;;8.00;82.30;;;;;;5008229;28;20033;-51
2020/12/31 11:16:32;;;;;;;6.43;2.80;;;7.90;82.20;;;;;;5002732;28;20026;-51
2020/12/31 11:18:58;;;;;;;28.92;13.45;;;8.00;82.30;;;;;;4997180;28;20049;-51
2020/12/31 11:21:25;;;;;;;9.35;4.90;;;8.00;82.30;;;;;;4997250;28;20038;-51
2020/12/31 11:23:52;;;;;;;6.97;2.72;;;8.00;82.30;;;;;;4999664;28;20041;-51
2020/12/31 11:26:20;;;;;;;34.33;10.40;;;8.00;82.20;;;;;;5017220;28;20043;-51
2020/12/31 11:28:50;;;;;;;6.47;3.55;;;8.00;82.30;;;;;;5011178;28;20391;-51
2020/12/31 11:31:22;;;;;;;7.00;2.60;;;8.00;82.20;;;;;;5015274;28;20092;-51
2020/12/31 11:33:48;;;;;;;4.82;2.60;;;8.00;82.40;;;;;;5015020;28;20267;-50
2020/12/31 11:36:14;;;;;;;5.10;2.08;;;8.00;82.30;;;;;;5016850;28;20033;-51
2020/12/31 11:38:40;;;;;;;8.65;3.90;;;8.00;82.30;;;;;;5016448;28;20481;-51
2020/12/31 11:41:09;;;;;;;5.75;2.13;;;8.10;82.30;;;;;;5016316;28;20444;-51
2020/12/31 11:43:36;;;;;;;2.45;1.67;;;8.10;82.30;;;;;;5016139;28;20356;-51
2020/12/31 11:46:04;;;;;;;2.05;1.70;;;8.10;82.30;;;;;;5016197;28;20067;-50
2020/12/31 11:48:30;;;;;;;2.33;1.90;;;8.10;82.30;;;;;;5016830;28;20099;-49
2020/12/31 11:50:55;;;;;;;2.85;1.98;;;8.00;81.30;;;;;;5007239;28;20444;-50
2020/12/31 11:53:21;;;;;;;2.40;1.77;;;7.90;80.50;;;;;;5004988;28;20034;-49
2020/12/31 11:55:48;;;;;;;2.45;1.73;;;7.80;80.10;;;;;;5016476;28;20030;-49
2020/12/31 11:58:14;;;;;;;2.17;1.45;;;7.70;79.20;;;;;;4997565;28;20046;-49
2020/12/31 12:00:40;;;;;;;2.08;1.17;;;7.70;78.50;;;;;;5009417;28;20027;-49
2020/12/31 12:03:06;;;;;;;1.85;1.35;;;7.60;78.10;;;;;;4996080;28;20034;-50
2020/12/31 12:05:32;;;;;;;2.28;1.58;;;7.50;77.60;;;;;;5000922;28;20029;-50
2020/12/31 12:07:57;;;;;;;1.20;0.95;;;7.50;77.00;;;;;;5016166;28;20032;-50
2020/12/31 12:10:23;;;;;;;4.10;2.00;;;7.50;76.80;;;;;;5015453;28;20104;-50
2020/12/31 12:12:49;;;;;;;1.67;0.82;;;7.50;76.20;;;;;;5015767;28;20030;-49
2020/12/31 12:15:14;;;;;;;0.50;0.50;;;7.50;75.90;;;;;;5016125;28;20032;-50
2020/12/31 12:17:41;;;;;;;1.77;0.93;;;7.40;75.20;;;;;;5015670;28;20466;-50
2020/12/31 12:20:07;;;;;;;4.55;2.30;;;7.50;75.10;;;;;;4998192;28;20038;-50
2020/12/31 12:22:33;;;;;;;1.67;0.93;;;7.40;74.80;;;;;;5015707;28;20350;-50
2020/12/31 12:25:00;;;;;;;1.98;1.30;;;7.40;74.90;;;;;;5015935;28;20101;-50
2020/12/31 12:27:26;;;;;;;3.42;1.83;;;7.40;74.70;;;;;;5015713;28;20053;-50
2020/12/31 12:29:51;;;;;;;0.93;0.88;;;7.40;74.00;;;;;;5007677;28;20066;-50
2020/12/31 12:32:17;;;;;;;0.82;0.82;;;7.40;73.90;;;;;;5014049;28;20069;-50
2020/12/31 12:34:43;;;;;;;2.47;1.23;;;7.40;73.80;;;;;;5008836;28;20033;-50
2020/12/31 12:37:09;;;;;;;4.70;1.10;;;7.40;73.10;;;;;;5015266;28;20092;-50
2020/12/31 12:39:35;;;;;;;0.30;0.30;;;7.40;73.30;;;;;;5015301;28;20363;-50
2020/12/31 12:42:00;;;;;;;0.47;0.47;;;7.40;72.50;;;;;;4999985;28;20097;-49
2020/12/31 12:44:26;;;;;;;1.77;1.63;;;7.40;72.40;;;;;;4995813;28;20395;-49
2020/12/31 12:46:52;;;;;;;0.80;0.80;;;7.40;71.70;;;;;;5003543;28;20042;-49
2020/12/31 12:49:17;;;;;;;2.15;1.15;;;7.40;71.80;;;;;;5015141;28;20064;-49
2020/12/31 12:51:43;;;;;;;0.90;0.73;;;7.40;71.70;;;;;;5001069;28;20038;-49
2020/12/31 12:54:09;;;;;;;1.25;0.80;;;7.30;71.60;;;;;;5010458;28;20036;-49
2020/12/31 12:56:35;;;;;;;3.88;1.92;;;7.30;71.40;;;;;;5015302;28;20072;-49
2020/12/31 12:59:01;;;;;;;2.67;2.08;;;7.30;71.30;;;;;;5014831;28;20139;-49
2020/12/31 13:01:26;;;;;;;1.95;1.40;;;7.30;71.50;;;;;;5014525;28;20045;-50